sensor_id;sensor_type;location;lat;lon;timestamp;P1;durP1;ratioP1;P2;durP2;ratioP2
75218;SDS011;63801;49.414;19.474;2023-05-29T00:00:09;6.72;;;3.08;;
75218;SDS011;63801;49.414;19.474;2023-05-29T00:02:09;12.38;;;4.28;;
75218;SDS011;63801;49.414;19.474;2023-05-29T00:04:10;7.95;;;3.85;;
75218;SDS011;63801;49.414;19.474;2023-05-29T00:06:12;9.38;;;4.20;;
75218;SDS011;63801;49.414;19.474;2023-05-29T00:08:13;9.45;;;4.57;;
75218;SDS011;63801;49.414;19.474;2023-05-29T00:10:13;9.57;;;4.25;;
75218;SDS011;63801;49.414;19.474;2023-05-29T00:12:13;8.73;;;4.07;;
75218;SDS011;63801;49.414;19.474;2023-05-29T00:14:15;11.85;;;4.40;;
75218;SDS011;63801;49.414;19.474;2023-05-29T00:16:15;7.28;;;3.70;;
75218;SDS011;63801;49.414;19.474;2023-05-29T00:18:17;8.43;;;3.60;;
75218;SDS011;63801;49.414;19.474;2023-05-29T00:20:18;10.25;;;3.28;;
75218;SDS011;63801;49.414;19.474;2023-05-29T00:22:18;5.90;;;3.17;;
75218;SDS011;63801;49.414;19.474;2023-05-29T00:24:19;6.70;;;2.90;;
75218;SDS011;63801;49.414;19.474;2023-05-29T00:26:20;6.05;;;3.30;;
75218;SDS011;63801;49.414;19.474;2023-05-29T00:28:21;8.13;;;3.50;;
75218;SDS011;63801;49.414;19.474;2023-05-29T00:30:21;9.43;;;3.22;;
75218;SDS011;63801;49.414;19.474;2023-05-29T00:32:21;9.50;;;3.00;;
75218;SDS011;63801;49.414;19.474;2023-05-29T00:34:22;6.18;;;3.03;;
75218;SDS011;63801;49.414;19.474;2023-05-29T00:36:23;7.15;;;2.95;;
75218;SDS011;63801;49.414;19.474;2023-05-29T00:38:24;10.63;;;3.65;;
75218;SDS011;63801;49.414;19.474;2023-05-29T00:40:24;9.32;;;4.38;;
75218;SDS011;63801;49.414;19.474;2023-05-29T00:42:25;12.55;;;4.55;;
75218;SDS011;63801;49.414;19.474;2023-05-29T00:44:25;8.45;;;3.83;;
75218;SDS011;63801;49.414;19.474;2023-05-29T00:46:25;8.75;;;3.55;;
75218;SDS011;63801;49.414;19.474;2023-05-29T00:48:26;9.73;;;3.90;;
75218;SDS011;63801;49.414;19.474;2023-05-29T00:50:27;8.30;;;3.80;;
75218;SDS011;63801;49.414;19.474;2023-05-29T00:52:27;9.60;;;3.50;;
75218;SDS011;63801;49.414;19.474;2023-05-29T00:54:28;8.93;;;4.32;;
75218;SDS011;63801;49.414;19.474;2023-05-29T00:56:30;10.07;;;4.07;;
75218;SDS011;63801;49.414;19.474;2023-05-29T00:58:30;10.75;;;4.10;;
75218;SDS011;63801;49.414;19.474;2023-05-29T01:00:31;8.30;;;3.65;;
75218;SDS011;63801;49.414;19.474;2023-05-29T01:02:33;10.77;;;4.30;;
75218;SDS011;63801;49.414;19.474;2023-05-29T01:04:36;7.57;;;4.05;;
75218;SDS011;63801;49.414;19.474;2023-05-29T01:06:38;8.95;;;4.25;;
75218;SDS011;63801;49.414;19.474;2023-05-29T01:08:39;10.18;;;4.40;;
75218;SDS011;63801;49.414;19.474;2023-05-29T01:10:40;10.18;;;4.38;;
75218;SDS011;63801;49.414;19.474;2023-05-29T01:18:00;6.55;;;3.50;;
75218;SDS011;63801;49.414;19.474;2023-05-29T01:25:21;8.20;;;3.67;;
75218;SDS011;63801;49.414;19.474;2023-05-29T01:27:29;8.25;;;3.33;;
75218;SDS011;63801;49.414;19.474;2023-05-29T01:29:32;14.55;;;4.10;;
75218;SDS011;63801;49.414;19.474;2023-05-29T01:33:39;5.97;;;3.20;;
75218;SDS011;63801;49.414;19.474;2023-05-29T01:35:40;11.40;;;4.18;;
75218;SDS011;63801;49.414;19.474;2023-05-29T01:37:40;10.02;;;3.60;;
75218;SDS011;63801;49.414;19.474;2023-05-29T01:39:41;11.02;;;3.55;;
75218;SDS011;63801;49.414;19.474;2023-05-29T01:41:42;9.00;;;3.33;;
75218;SDS011;63801;49.414;19.474;2023-05-29T01:43:44;6.35;;;3.15;;
75218;SDS011;63801;49.414;19.474;2023-05-29T01:45:46;8.52;;;3.40;;
75218;SDS011;63801;49.414;19.474;2023-05-29T01:47:46;7.90;;;3.22;;
75218;SDS011;63801;49.414;19.474;2023-05-29T01:49:47;9.20;;;3.63;;
75218;SDS011;63801;49.414;19.474;2023-05-29T01:51:50;6.63;;;3.00;;
75218;SDS011;63801;49.414;19.474;2023-05-29T01:53:50;9.18;;;3.30;;
75218;SDS011;63801;49.414;19.474;2023-05-29T01:55:51;6.68;;;3.10;;
75218;SDS011;63801;49.414;19.474;2023-05-29T01:57:51;12.00;;;3.38;;
75218;SDS011;63801;49.414;19.474;2023-05-29T01:59:54;8.93;;;3.67;;
75218;SDS011;63801;49.414;19.474;2023-05-29T02:01:54;8.60;;;3.15;;
75218;SDS011;63801;49.414;19.474;2023-05-29T02:03:54;9.07;;;4.07;;
75218;SDS011;63801;49.414;19.474;2023-05-29T02:05:56;7.53;;;3.55;;
75218;SDS011;63801;49.414;19.474;2023-05-29T02:07:57;7.38;;;3.60;;
75218;SDS011;63801;49.414;19.474;2023-05-29T02:09:57;8.70;;;4.30;;
75218;SDS011;63801;49.414;19.474;2023-05-29T02:11:58;6.90;;;3.20;;
75218;SDS011;63801;49.414;19.474;2023-05-29T02:13:58;11.27;;;3.45;;
75218;SDS011;63801;49.414;19.474;2023-05-29T02:16:02;12.07;;;4.78;;
75218;SDS011;63801;49.414;19.474;2023-05-29T02:18:02;8.65;;;4.50;;
75218;SDS011;63801;49.414;19.474;2023-05-29T02:20:02;7.45;;;3.63;;
75218;SDS011;63801;49.414;19.474;2023-05-29T02:22:07;11.55;;;4.25;;
75218;SDS011;63801;49.414;19.474;2023-05-29T02:24:07;9.68;;;4.60;;
75218;SDS011;63801;49.414;19.474;2023-05-29T02:26:08;11.63;;;4.57;;
75218;SDS011;63801;49.414;19.474;2023-05-29T02:28:09;15.23;;;5.57;;
75218;SDS011;63801;49.414;19.474;2023-05-29T02:30:09;21.33;;;7.15;;
75218;SDS011;63801;49.414;19.474;2023-05-29T02:32:10;14.85;;;6.30;;
75218;SDS011;63801;49.414;19.474;2023-05-29T02:34:10;13.15;;;5.50;;
75218;SDS011;63801;49.414;19.474;2023-05-29T02:36:11;17.40;;;5.88;;
75218;SDS011;63801;49.414;19.474;2023-05-29T02:38:11;18.63;;;5.43;;
75218;SDS011;63801;49.414;19.474;2023-05-29T02:40:12;8.32;;;4.53;;
75218;SDS011;63801;49.414;19.474;2023-05-29T02:42:12;9.75;;;4.53;;
75218;SDS011;63801;49.414;19.474;2023-05-29T02:44:12;9.68;;;4.45;;
75218;SDS011;63801;49.414;19.474;2023-05-29T02:46:13;9.65;;;4.00;;
75218;SDS011;63801;49.414;19.474;2023-05-29T02:48:13;8.48;;;4.10;;
75218;SDS011;63801;49.414;19.474;2023-05-29T02:50:14;10.88;;;4.38;;
75218;SDS011;63801;49.414;19.474;2023-05-29T02:52:14;10.35;;;4.20;;
75218;SDS011;63801;49.414;19.474;2023-05-29T02:54:14;9.30;;;4.25;;
75218;SDS011;63801;49.414;19.474;2023-05-29T02:56:15;10.68;;;4.25;;
75218;SDS011;63801;49.414;19.474;2023-05-29T02:58:16;9.43;;;4.53;;
75218;SDS011;63801;49.414;19.474;2023-05-29T03:00:16;9.57;;;4.63;;
75218;SDS011;63801;49.414;19.474;2023-05-29T03:02:18;8.13;;;3.60;;
75218;SDS011;63801;49.414;19.474;2023-05-29T03:04:18;11.23;;;4.75;;
75218;SDS011;63801;49.414;19.474;2023-05-29T03:06:19;8.38;;;4.20;;
75218;SDS011;63801;49.414;19.474;2023-05-29T03:08:19;12.63;;;5.15;;
75218;SDS011;63801;49.414;19.474;2023-05-29T03:10:20;11.48;;;4.70;;
75218;SDS011;63801;49.414;19.474;2023-05-29T03:12:20;12.90;;;5.78;;
75218;SDS011;63801;49.414;19.474;2023-05-29T03:14:21;14.15;;;5.80;;
75218;SDS011;63801;49.414;19.474;2023-05-29T03:16:21;15.05;;;6.00;;
75218;SDS011;63801;49.414;19.474;2023-05-29T03:18:22;10.43;;;5.75;;
75218;SDS011;63801;49.414;19.474;2023-05-29T03:20:23;14.07;;;5.50;;
75218;SDS011;63801;49.414;19.474;2023-05-29T03:22:23;14.10;;;5.63;;
75218;SDS011;63801;49.414;19.474;2023-05-29T03:24:24;13.02;;;5.30;;
75218;SDS011;63801;49.414;19.474;2023-05-29T03:26:24;12.93;;;6.18;;
75218;SDS011;63801;49.414;19.474;2023-05-29T03:28:25;14.00;;;6.47;;
75218;SDS011;63801;49.414;19.474;2023-05-29T03:30:26;12.07;;;5.75;;
75218;SDS011;63801;49.414;19.474;2023-05-29T03:32:26;12.00;;;6.07;;
75218;SDS011;63801;49.414;19.474;2023-05-29T03:34:26;15.30;;;7.97;;
75218;SDS011;63801;49.414;19.474;2023-05-29T03:36:27;15.32;;;5.53;;
75218;SDS011;63801;49.414;19.474;2023-05-29T03:38:28;12.50;;;5.60;;
75218;SDS011;63801;49.414;19.474;2023-05-29T03:40:28;13.80;;;5.45;;
75218;SDS011;63801;49.414;19.474;2023-05-29T03:42:29;11.98;;;4.93;;
75218;SDS011;63801;49.414;19.474;2023-05-29T03:44:31;13.55;;;4.82;;
75218;SDS011;63801;49.414;19.474;2023-05-29T03:46:31;9.25;;;4.95;;
75218;SDS011;63801;49.414;19.474;2023-05-29T03:48:31;10.88;;;5.03;;
75218;SDS011;63801;49.414;19.474;2023-05-29T03:50:32;11.25;;;5.07;;
75218;SDS011;63801;49.414;19.474;2023-05-29T03:52:32;15.38;;;6.05;;
75218;SDS011;63801;49.414;19.474;2023-05-29T03:54:32;20.83;;;6.40;;
75218;SDS011;63801;49.414;19.474;2023-05-29T03:56:33;16.23;;;6.88;;
75218;SDS011;63801;49.414;19.474;2023-05-29T03:58:35;18.73;;;6.83;;
75218;SDS011;63801;49.414;19.474;2023-05-29T04:00:36;12.27;;;6.10;;
75218;SDS011;63801;49.414;19.474;2023-05-29T04:02:37;19.30;;;6.82;;
75218;SDS011;63801;49.414;19.474;2023-05-29T04:04:38;15.02;;;7.30;;
75218;SDS011;63801;49.414;19.474;2023-05-29T04:06:39;13.32;;;5.97;;
75218;SDS011;63801;49.414;19.474;2023-05-29T04:08:40;13.85;;;5.80;;
75218;SDS011;63801;49.414;19.474;2023-05-29T04:10:40;14.43;;;5.78;;
75218;SDS011;63801;49.414;19.474;2023-05-29T04:12:40;12.50;;;5.32;;
75218;SDS011;63801;49.414;19.474;2023-05-29T04:14:41;14.50;;;5.20;;
75218;SDS011;63801;49.414;19.474;2023-05-29T04:16:41;19.50;;;5.93;;
75218;SDS011;63801;49.414;19.474;2023-05-29T04:18:41;14.98;;;4.75;;
75218;SDS011;63801;49.414;19.474;2023-05-29T04:20:42;15.43;;;5.20;;
75218;SDS011;63801;49.414;19.474;2023-05-29T04:22:45;14.45;;;5.00;;
75218;SDS011;63801;49.414;19.474;2023-05-29T04:24:46;17.02;;;5.60;;
75218;SDS011;63801;49.414;19.474;2023-05-29T04:26:49;12.23;;;5.18;;
75218;SDS011;63801;49.414;19.474;2023-05-29T04:28:54;14.55;;;4.97;;
75218;SDS011;63801;49.414;19.474;2023-05-29T04:30:57;9.93;;;4.75;;
75218;SDS011;63801;49.414;19.474;2023-05-29T04:32:57;8.52;;;4.90;;
75218;SDS011;63801;49.414;19.474;2023-05-29T04:34:57;9.93;;;5.10;;
75218;SDS011;63801;49.414;19.474;2023-05-29T04:37:02;11.18;;;5.57;;
75218;SDS011;63801;49.414;19.474;2023-05-29T04:39:03;13.77;;;5.20;;
75218;SDS011;63801;49.414;19.474;2023-05-29T04:41:03;13.90;;;4.90;;
75218;SDS011;63801;49.414;19.474;2023-05-29T04:43:04;10.65;;;4.68;;
75218;SDS011;63801;49.414;19.474;2023-05-29T04:45:05;14.63;;;4.82;;
75218;SDS011;63801;49.414;19.474;2023-05-29T04:47:06;11.68;;;5.07;;
75218;SDS011;63801;49.414;19.474;2023-05-29T04:49:06;12.27;;;4.30;;
75218;SDS011;63801;49.414;19.474;2023-05-29T04:51:07;8.20;;;4.45;;
75218;SDS011;63801;49.414;19.474;2023-05-29T04:53:10;12.15;;;4.75;;
75218;SDS011;63801;49.414;19.474;2023-05-29T04:55:11;11.95;;;4.35;;
75218;SDS011;63801;49.414;19.474;2023-05-29T04:57:11;11.20;;;4.63;;
75218;SDS011;63801;49.414;19.474;2023-05-29T04:59:12;11.20;;;4.47;;
75218;SDS011;63801;49.414;19.474;2023-05-29T05:01:12;9.60;;;4.70;;
75218;SDS011;63801;49.414;19.474;2023-05-29T05:03:14;11.18;;;4.82;;
75218;SDS011;63801;49.414;19.474;2023-05-29T05:05:16;12.30;;;5.43;;
75218;SDS011;63801;49.414;19.474;2023-05-29T05:07:17;10.75;;;4.72;;
75218;SDS011;63801;49.414;19.474;2023-05-29T05:09:17;13.77;;;5.15;;
75218;SDS011;63801;49.414;19.474;2023-05-29T05:11:22;13.65;;;5.10;;
75218;SDS011;63801;49.414;19.474;2023-05-29T05:13:24;14.25;;;5.38;;
75218;SDS011;63801;49.414;19.474;2023-05-29T05:15:25;11.63;;;4.88;;
75218;SDS011;63801;49.414;19.474;2023-05-29T05:17:25;13.55;;;5.50;;
75218;SDS011;63801;49.414;19.474;2023-05-29T05:19:25;17.05;;;5.40;;
75218;SDS011;63801;49.414;19.474;2023-05-29T05:21:26;11.80;;;4.90;;
75218;SDS011;63801;49.414;19.474;2023-05-29T05:23:26;13.40;;;5.55;;
75218;SDS011;63801;49.414;19.474;2023-05-29T05:25:26;12.90;;;4.68;;
75218;SDS011;63801;49.414;19.474;2023-05-29T05:27:27;12.40;;;5.32;;
75218;SDS011;63801;49.414;19.474;2023-05-29T05:29:27;11.68;;;4.80;;
75218;SDS011;63801;49.414;19.474;2023-05-29T05:31:27;14.43;;;5.35;;
75218;SDS011;63801;49.414;19.474;2023-05-29T05:33:28;15.45;;;6.07;;
75218;SDS011;63801;49.414;19.474;2023-05-29T05:35:28;15.05;;;6.30;;
75218;SDS011;63801;49.414;19.474;2023-05-29T05:37:28;17.20;;;6.75;;
75218;SDS011;63801;49.414;19.474;2023-05-29T05:39:29;15.50;;;6.30;;
75218;SDS011;63801;49.414;19.474;2023-05-29T05:41:29;14.82;;;7.10;;
75218;SDS011;63801;49.414;19.474;2023-05-29T05:43:29;17.73;;;6.68;;
75218;SDS011;63801;49.414;19.474;2023-05-29T05:45:30;16.85;;;6.63;;
75218;SDS011;63801;49.414;19.474;2023-05-29T05:47:30;12.63;;;5.22;;
75218;SDS011;63801;49.414;19.474;2023-05-29T05:49:30;13.32;;;5.80;;
75218;SDS011;63801;49.414;19.474;2023-05-29T05:51:31;16.95;;;6.45;;
75218;SDS011;63801;49.414;19.474;2023-05-29T05:53:31;12.00;;;5.65;;
75218;SDS011;63801;49.414;19.474;2023-05-29T05:55:32;11.70;;;6.00;;
75218;SDS011;63801;49.414;19.474;2023-05-29T05:57:32;13.25;;;4.95;;
75218;SDS011;63801;49.414;19.474;2023-05-29T05:59:33;15.05;;;5.88;;
75218;SDS011;63801;49.414;19.474;2023-05-29T06:01:33;11.45;;;5.28;;
75218;SDS011;63801;49.414;19.474;2023-05-29T06:03:34;16.17;;;5.70;;
75218;SDS011;63801;49.414;19.474;2023-05-29T06:05:34;13.27;;;5.50;;
75218;SDS011;63801;49.414;19.474;2023-05-29T06:07:36;14.63;;;5.13;;
75218;SDS011;63801;49.414;19.474;2023-05-29T06:09:37;13.38;;;5.07;;
75218;SDS011;63801;49.414;19.474;2023-05-29T06:11:37;10.48;;;4.63;;
75218;SDS011;63801;49.414;19.474;2023-05-29T06:13:38;9.75;;;4.30;;
75218;SDS011;63801;49.414;19.474;2023-05-29T06:15:39;9.50;;;4.20;;
75218;SDS011;63801;49.414;19.474;2023-05-29T06:17:39;13.45;;;4.20;;
75218;SDS011;63801;49.414;19.474;2023-05-29T06:19:39;11.77;;;4.63;;
75218;SDS011;63801;49.414;19.474;2023-05-29T06:21:40;8.50;;;3.88;;
75218;SDS011;63801;49.414;19.474;2023-05-29T06:23:40;8.23;;;4.50;;
75218;SDS011;63801;49.414;19.474;2023-05-29T06:25:41;7.72;;;4.18;;
75218;SDS011;63801;49.414;19.474;2023-05-29T06:27:41;8.13;;;3.90;;
75218;SDS011;63801;49.414;19.474;2023-05-29T06:29:42;9.13;;;4.20;;
75218;SDS011;63801;49.414;19.474;2023-05-29T06:31:42;10.68;;;4.25;;
75218;SDS011;63801;49.414;19.474;2023-05-29T06:33:43;9.10;;;4.40;;
75218;SDS011;63801;49.414;19.474;2023-05-29T06:35:44;11.70;;;4.90;;
75218;SDS011;63801;49.414;19.474;2023-05-29T06:37:45;11.48;;;4.43;;
75218;SDS011;63801;49.414;19.474;2023-05-29T06:39:45;10.35;;;4.25;;
75218;SDS011;63801;49.414;19.474;2023-05-29T06:41:46;11.73;;;4.40;;
75218;SDS011;63801;49.414;19.474;2023-05-29T06:43:46;9.77;;;4.60;;
75218;SDS011;63801;49.414;19.474;2023-05-29T06:45:46;11.35;;;4.60;;
75218;SDS011;63801;49.414;19.474;2023-05-29T06:47:47;8.40;;;4.05;;
75218;SDS011;63801;49.414;19.474;2023-05-29T06:49:47;7.47;;;4.18;;
75218;SDS011;63801;49.414;19.474;2023-05-29T06:51:47;10.77;;;4.25;;
75218;SDS011;63801;49.414;19.474;2023-05-29T06:53:48;11.93;;;4.45;;
75218;SDS011;63801;49.414;19.474;2023-05-29T06:55:48;9.77;;;4.38;;
75218;SDS011;63801;49.414;19.474;2023-05-29T06:57:48;8.25;;;3.95;;
75218;SDS011;63801;49.414;19.474;2023-05-29T06:59:49;20.67;;;7.18;;
75218;SDS011;63801;49.414;19.474;2023-05-29T07:01:58;12.70;;;4.30;;
75218;SDS011;63801;49.414;19.474;2023-05-29T07:03:59;8.25;;;4.50;;
75218;SDS011;63801;49.414;19.474;2023-05-29T07:05:59;8.07;;;4.22;;
75218;SDS011;63801;49.414;19.474;2023-05-29T07:08:00;8.95;;;4.55;;
75218;SDS011;63801;49.414;19.474;2023-05-29T07:10:00;10.82;;;3.90;;
75218;SDS011;63801;49.414;19.474;2023-05-29T07:12:00;10.18;;;4.20;;
75218;SDS011;63801;49.414;19.474;2023-05-29T07:14:01;8.50;;;3.95;;
75218;SDS011;63801;49.414;19.474;2023-05-29T07:16:01;8.18;;;3.75;;
75218;SDS011;63801;49.414;19.474;2023-05-29T07:18:01;8.70;;;3.72;;
75218;SDS011;63801;49.414;19.474;2023-05-29T07:20:02;8.32;;;3.85;;
75218;SDS011;63801;49.414;19.474;2023-05-29T07:22:04;7.90;;;3.60;;
75218;SDS011;63801;49.414;19.474;2023-05-29T07:24:05;15.57;;;4.28;;
75218;SDS011;63801;49.414;19.474;2023-05-29T07:26:05;11.18;;;3.78;;
75218;SDS011;63801;49.414;19.474;2023-05-29T07:28:06;12.25;;;4.97;;
75218;SDS011;63801;49.414;19.474;2023-05-29T07:30:06;9.70;;;4.40;;
75218;SDS011;63801;49.414;19.474;2023-05-29T07:32:08;13.70;;;4.70;;
75218;SDS011;63801;49.414;19.474;2023-05-29T07:34:09;7.80;;;3.53;;
75218;SDS011;63801;49.414;19.474;2023-05-29T07:36:10;14.20;;;3.92;;
75218;SDS011;63801;49.414;19.474;2023-05-29T07:38:10;11.13;;;3.78;;
75218;SDS011;63801;49.414;19.474;2023-05-29T07:40:11;13.23;;;3.65;;
75218;SDS011;63801;49.414;19.474;2023-05-29T07:42:11;7.88;;;3.45;;
75218;SDS011;63801;49.414;19.474;2023-05-29T07:44:12;9.52;;;4.10;;
75218;SDS011;63801;49.414;19.474;2023-05-29T07:46:12;10.43;;;3.83;;
75218;SDS011;63801;49.414;19.474;2023-05-29T07:48:12;10.75;;;3.33;;
75218;SDS011;63801;49.414;19.474;2023-05-29T07:50:14;10.02;;;3.67;;
75218;SDS011;63801;49.414;19.474;2023-05-29T07:52:14;12.70;;;4.38;;
75218;SDS011;63801;49.414;19.474;2023-05-29T07:54:15;8.60;;;3.20;;
75218;SDS011;63801;49.414;19.474;2023-05-29T07:56:18;8.32;;;3.08;;
75218;SDS011;63801;49.414;19.474;2023-05-29T07:58:18;8.02;;;2.90;;
75218;SDS011;63801;49.414;19.474;2023-05-29T08:00:19;12.05;;;3.22;;
75218;SDS011;63801;49.414;19.474;2023-05-29T08:02:19;9.32;;;3.40;;
75218;SDS011;63801;49.414;19.474;2023-05-29T08:04:20;9.68;;;3.90;;
75218;SDS011;63801;49.414;19.474;2023-05-29T08:06:21;9.90;;;3.67;;
75218;SDS011;63801;49.414;19.474;2023-05-29T08:08:21;12.48;;;3.72;;
75218;SDS011;63801;49.414;19.474;2023-05-29T08:10:22;7.85;;;3.70;;
75218;SDS011;63801;49.414;19.474;2023-05-29T08:12:22;7.22;;;3.30;;
75218;SDS011;63801;49.414;19.474;2023-05-29T08:14:22;11.88;;;4.00;;
75218;SDS011;63801;49.414;19.474;2023-05-29T08:16:23;8.75;;;4.13;;
75218;SDS011;63801;49.414;19.474;2023-05-29T08:18:25;9.82;;;3.90;;
75218;SDS011;63801;49.414;19.474;2023-05-29T08:20:26;11.35;;;3.97;;
75218;SDS011;63801;49.414;19.474;2023-05-29T08:22:29;8.77;;;3.67;;
75218;SDS011;63801;49.414;19.474;2023-05-29T08:24:29;10.68;;;3.90;;
75218;SDS011;63801;49.414;19.474;2023-05-29T08:26:30;8.73;;;3.58;;
75218;SDS011;63801;49.414;19.474;2023-05-29T08:28:31;8.15;;;3.45;;
75218;SDS011;63801;49.414;19.474;2023-05-29T08:30:31;15.48;;;4.07;;
75218;SDS011;63801;49.414;19.474;2023-05-29T08:32:31;7.18;;;3.70;;
75218;SDS011;63801;49.414;19.474;2023-05-29T08:34:32;10.05;;;3.75;;
75218;SDS011;63801;49.414;19.474;2023-05-29T08:36:32;8.43;;;3.58;;
75218;SDS011;63801;49.414;19.474;2023-05-29T08:38:33;9.90;;;3.92;;
75218;SDS011;63801;49.414;19.474;2023-05-29T08:40:33;11.32;;;3.72;;
75218;SDS011;63801;49.414;19.474;2023-05-29T08:42:35;6.88;;;3.70;;
75218;SDS011;63801;49.414;19.474;2023-05-29T08:44:40;10.02;;;3.58;;
75218;SDS011;63801;49.414;19.474;2023-05-29T08:46:40;11.68;;;4.38;;
75218;SDS011;63801;49.414;19.474;2023-05-29T08:48:40;9.93;;;3.83;;
75218;SDS011;63801;49.414;19.474;2023-05-29T08:50:47;11.02;;;3.80;;
75218;SDS011;63801;49.414;19.474;2023-05-29T08:52:47;8.55;;;3.92;;
75218;SDS011;63801;49.414;19.474;2023-05-29T08:54:47;7.97;;;3.30;;
75218;SDS011;63801;49.414;19.474;2023-05-29T08:56:48;14.82;;;4.20;;
75218;SDS011;63801;49.414;19.474;2023-05-29T08:58:48;7.35;;;3.47;;
75218;SDS011;63801;49.414;19.474;2023-05-29T09:00:50;11.82;;;4.05;;
75218;SDS011;63801;49.414;19.474;2023-05-29T09:02:51;6.00;;;3.78;;
75218;SDS011;63801;49.414;19.474;2023-05-29T09:04:53;9.80;;;3.92;;
75218;SDS011;63801;49.414;19.474;2023-05-29T09:06:54;9.45;;;3.75;;
75218;SDS011;63801;49.414;19.474;2023-05-29T09:08:55;8.00;;;4.10;;
75218;SDS011;63801;49.414;19.474;2023-05-29T09:10:57;12.18;;;4.30;;
75218;SDS011;63801;49.414;19.474;2023-05-29T09:12:58;11.88;;;4.25;;
75218;SDS011;63801;49.414;19.474;2023-05-29T09:14:59;9.30;;;3.95;;
75218;SDS011;63801;49.414;19.474;2023-05-29T09:17:00;7.00;;;3.60;;
75218;SDS011;63801;49.414;19.474;2023-05-29T09:19:04;6.75;;;3.70;;
75218;SDS011;63801;49.414;19.474;2023-05-29T09:21:06;8.52;;;3.85;;
75218;SDS011;63801;49.414;19.474;2023-05-29T09:23:10;7.63;;;3.88;;
75218;SDS011;63801;49.414;19.474;2023-05-29T09:25:10;7.88;;;4.00;;
75218;SDS011;63801;49.414;19.474;2023-05-29T09:27:11;11.35;;;4.13;;
75218;SDS011;63801;49.414;19.474;2023-05-29T09:29:11;10.20;;;4.30;;
75218;SDS011;63801;49.414;19.474;2023-05-29T09:31:15;8.65;;;3.95;;
75218;SDS011;63801;49.414;19.474;2023-05-29T09:33:20;14.07;;;4.18;;
75218;SDS011;63801;49.414;19.474;2023-05-29T09:35:20;7.60;;;4.00;;
75218;SDS011;63801;49.414;19.474;2023-05-29T09:37:21;8.23;;;4.43;;
75218;SDS011;63801;49.414;19.474;2023-05-29T09:39:22;10.20;;;3.60;;
75218;SDS011;63801;49.414;19.474;2023-05-29T09:41:25;9.32;;;3.88;;
75218;SDS011;63801;49.414;19.474;2023-05-29T09:43:26;8.50;;;4.40;;
75218;SDS011;63801;49.414;19.474;2023-05-29T09:45:26;7.13;;;3.83;;
75218;SDS011;63801;49.414;19.474;2023-05-29T09:47:27;9.82;;;4.68;;
75218;SDS011;63801;49.414;19.474;2023-05-29T09:49:33;11.23;;;4.38;;
75218;SDS011;63801;49.414;19.474;2023-05-29T09:51:34;8.13;;;3.70;;
75218;SDS011;63801;49.414;19.474;2023-05-29T09:53:34;9.45;;;4.38;;
75218;SDS011;63801;49.414;19.474;2023-05-29T09:55:40;10.00;;;3.92;;
75218;SDS011;63801;49.414;19.474;2023-05-29T09:57:40;11.80;;;4.47;;
75218;SDS011;63801;49.414;19.474;2023-05-29T09:59:45;7.50;;;3.80;;
75218;SDS011;63801;49.414;19.474;2023-05-29T10:01:48;9.38;;;4.18;;
75218;SDS011;63801;49.414;19.474;2023-05-29T10:03:56;7.93;;;4.07;;
75218;SDS011;63801;49.414;19.474;2023-05-29T10:05:56;8.63;;;4.35;;
75218;SDS011;63801;49.414;19.474;2023-05-29T10:07:59;8.25;;;4.13;;
75218;SDS011;63801;49.414;19.474;2023-05-29T10:10:03;7.47;;;3.90;;
75218;SDS011;63801;49.414;19.474;2023-05-29T10:12:07;8.68;;;3.90;;
75218;SDS011;63801;49.414;19.474;2023-05-29T10:14:10;11.25;;;4.20;;
75218;SDS011;63801;49.414;19.474;2023-05-29T10:16:19;9.23;;;3.83;;
75218;SDS011;63801;49.414;19.474;2023-05-29T10:18:26;6.30;;;3.65;;
75218;SDS011;63801;49.414;19.474;2023-05-29T10:20:31;7.93;;;4.20;;
75218;SDS011;63801;49.414;19.474;2023-05-29T10:22:34;8.95;;;4.38;;
75218;SDS011;63801;49.414;19.474;2023-05-29T10:24:44;9.20;;;4.45;;
75218;SDS011;63801;49.414;19.474;2023-05-29T10:26:49;9.85;;;4.18;;
75218;SDS011;63801;49.414;19.474;2023-05-29T10:31:27;7.30;;;4.10;;
75218;SDS011;63801;49.414;19.474;2023-05-29T10:34:02;8.63;;;4.30;;
75218;SDS011;63801;49.414;19.474;2023-05-29T10:36:18;9.63;;;5.05;;
75218;SDS011;63801;49.414;19.474;2023-05-29T10:38:23;10.88;;;4.00;;
75218;SDS011;63801;49.414;19.474;2023-05-29T10:40:25;7.63;;;3.70;;
75218;SDS011;63801;49.414;19.474;2023-05-29T10:42:42;6.15;;;3.83;;
75218;SDS011;63801;49.414;19.474;2023-05-29T10:44:43;10.65;;;4.15;;
75218;SDS011;63801;49.414;19.474;2023-05-29T10:48:51;7.80;;;4.40;;
75218;SDS011;63801;49.414;19.474;2023-05-29T10:50:54;8.35;;;4.18;;
75218;SDS011;63801;49.414;19.474;2023-05-29T10:52:55;10.98;;;4.63;;
75218;SDS011;63801;49.414;19.474;2023-05-29T10:54:56;9.77;;;3.85;;
75218;SDS011;63801;49.414;19.474;2023-05-29T10:57:00;8.50;;;3.92;;
75218;SDS011;63801;49.414;19.474;2023-05-29T10:59:01;9.38;;;4.15;;
75218;SDS011;63801;49.414;19.474;2023-05-29T11:01:02;8.27;;;4.13;;
75218;SDS011;63801;49.414;19.474;2023-05-29T11:03:03;9.85;;;4.32;;
75218;SDS011;63801;49.414;19.474;2023-05-29T11:05:06;8.43;;;4.18;;
75218;SDS011;63801;49.414;19.474;2023-05-29T11:07:34;10.48;;;4.88;;
75218;SDS011;63801;49.414;19.474;2023-05-29T11:09:36;10.68;;;4.60;;
75218;SDS011;63801;49.414;19.474;2023-05-29T11:11:38;8.93;;;4.88;;
75218;SDS011;63801;49.414;19.474;2023-05-29T11:13:40;7.30;;;4.18;;
75218;SDS011;63801;49.414;19.474;2023-05-29T11:16:04;10.70;;;4.65;;
75218;SDS011;63801;49.414;19.474;2023-05-29T11:18:25;10.77;;;3.95;;
75218;SDS011;63801;49.414;19.474;2023-05-29T11:20:35;8.07;;;4.55;;
75218;SDS011;63801;49.414;19.474;2023-05-29T11:24:55;12.30;;;4.80;;
75218;SDS011;63801;49.414;19.474;2023-05-29T11:29:06;8.15;;;3.88;;
75218;SDS011;63801;49.414;19.474;2023-05-29T11:31:10;8.38;;;4.28;;
75218;SDS011;63801;49.414;19.474;2023-05-29T11:33:19;10.13;;;4.43;;
75218;SDS011;63801;49.414;19.474;2023-05-29T11:35:24;8.35;;;4.20;;
75218;SDS011;63801;49.414;19.474;2023-05-29T11:37:26;12.15;;;4.63;;
75218;SDS011;63801;49.414;19.474;2023-05-29T11:39:26;8.43;;;4.10;;
75218;SDS011;63801;49.414;19.474;2023-05-29T11:41:28;9.35;;;4.20;;
75218;SDS011;63801;49.414;19.474;2023-05-29T11:43:28;10.13;;;4.82;;
75218;SDS011;63801;49.414;19.474;2023-05-29T11:45:31;10.68;;;4.45;;
75218;SDS011;63801;49.414;19.474;2023-05-29T11:47:43;8.43;;;4.05;;
75218;SDS011;63801;49.414;19.474;2023-05-29T11:49:56;10.02;;;4.85;;
75218;SDS011;63801;49.414;19.474;2023-05-29T11:52:09;14.50;;;4.57;;
75218;SDS011;63801;49.414;19.474;2023-05-29T11:54:11;8.20;;;4.72;;
75218;SDS011;63801;49.414;19.474;2023-05-29T11:56:12;9.73;;;4.22;;
75218;SDS011;63801;49.414;19.474;2023-05-29T11:58:12;8.02;;;4.47;;
75218;SDS011;63801;49.414;19.474;2023-05-29T12:00:15;8.10;;;4.25;;
75218;SDS011;63801;49.414;19.474;2023-05-29T12:02:16;9.70;;;4.07;;
75218;SDS011;63801;49.414;19.474;2023-05-29T12:04:17;10.07;;;4.32;;
75218;SDS011;63801;49.414;19.474;2023-05-29T12:06:30;7.53;;;4.07;;
75218;SDS011;63801;49.414;19.474;2023-05-29T12:08:36;9.32;;;4.18;;
75218;SDS011;63801;49.414;19.474;2023-05-29T12:10:37;7.88;;;3.83;;
75218;SDS011;63801;49.414;19.474;2023-05-29T12:12:51;10.70;;;4.22;;
75218;SDS011;63801;49.414;19.474;2023-05-29T12:14:56;9.07;;;4.10;;
75218;SDS011;63801;49.414;19.474;2023-05-29T12:16:56;7.78;;;4.13;;
75218;SDS011;63801;49.414;19.474;2023-05-29T12:18:57;9.88;;;3.80;;